MUVR/VRA METAR and TAF weather

Enter ICAO airport designator
Station Type Date Time Source
MUVR METAR 2020/08/15 15:50 UTC NOAA

MUVR 151550Z 12007KT 080V150 9000 FEW020 31/24 Q1015


Station Type Date Time Source
MUVR Decoded METAR 2020/08/15 15:50 UTC NOAA

Varadero, Matanzas, Cuba (MUVR) 23-08N 081-17W 3M
Aug 15, 2020 - 11:50 AM EDT / 2020.08.15 1550 UTC
Wind: from the ESE (120 degrees) at 8 MPH (7 KT) (direction variable):0
Visibility: 5 mile(s):0
Sky conditions: mostly clear
Temperature: 87 F (31 C)
Heat index: 95.7 F (35.4 C):1
Dew Point: 75 F (24 C)
Relative Humidity: 66%
Pressure (altimeter): 29.97 in. Hg (1015 hPa)
ob: MUVR 151550Z 12007KT 080V150 9000 FEW020 31/24 Q1015
cycle: 16

Station Type Date Time Source
MUVR TAF 2020/08/15 12:06 UTC NOAA

TAF MUVR 151100Z 1512/1612 VRB03KT 9000 SCT020
BECMG 1515/1517 05008KT
TEMPO 1518/1524 VRB10KT 5000 TSRA FEW018CB BKN020
BECMG 1601/1603 VRB03KT

Example: see airport list